Дата Пункты Температура Давл., мм. Влажн., % Ветер Погодные явления
Воздуха Воды Направл. Скорость
13.12.17 02:00 Одесса 6.0 8.0 758 83 Ю-З 1 02 часа
12.12.17 11:00 Одесса 7.0 8.0 758 78 З 2 23 часа
12.12.17 08:00 Одесса 7.0 8.0 758 83 З 1 20 часов
12.12.17 05:00 Одесса 9.0 8.0 757 85 Ю 1 17 часов
12.12.17 02:00 Одесса 12.0 8.0 756 66 Ю 2 14 часов
12.12.17 11:00 Одесса 11.0 8.0 757 69 Ю-З 3 11 часов
12.12.17 08:00 Одесса 7.0 8.0 757 75 Ю-З 3 08 часов
12.12.17 05:00 Одесса 9.0 8.0 756 74 Ю-З 3 05 часов
12.12.17 02:00 Одесса 8.0 8.0 757 78 Ю-З 2 02 часа
11.12.17 11:00 Одесса 8.0 8.0 757 67 Ю-З 2 23 часа
11.12.17 08:00 Одесса 8.0 8.0 758 68 Ю-З 3 20 часов
11.12.17 05:00 Одесса 8.0 8.0 757 62 Ю-З 3 17 часов
11.12.17 02:00 Одесса 8.0 8.0 758 52 Ю-З 3 14 часов
11.12.17 11:00 Одесса 7.0 8.0 758 60 Ю-З 2 11 часов
11.12.17 08:00 Одесса 4.0 8.0 757 67 Ю-З 3 08 часов
11.12.17 05:00 Одесса 3.0 8.0 757 70 Ю-З 3 05 часов
11.12.17 02:00 Одесса 1.0 8.0 757 87 Ю-З 2 02 часа
10.12.17 11:00 Одесса 1.0 8.0 757 85 З 3 23 часа
10.12.17 08:00 Одесса 1.0 8.0 755 85 З 3 20 часов
10.12.17 05:00 Одесса 1.0 9.0 751 88 З 8 17 часов
Количество строк
1 2 3 4 5 6 7 8 9 10
Page 1 of 305